createdAt,value
2023-01-01T00:00:28.281Z,29.89
2023-01-01T00:03:01.193Z,30.52
2023-01-01T00:05:34.145Z,31.04
2023-01-01T00:08:07.819Z,29.18
2023-01-01T00:10:41.296Z,30.52
2023-01-01T00:13:15.396Z,30.16
2023-01-01T00:15:59.446Z,32.17
2023-01-01T00:18:26.218Z,30.40
2023-01-01T00:21:08.159Z,31.65
2023-01-01T00:23:35.883Z,29.45
2023-01-01T00:26:20.117Z,29.52
2023-01-01T00:28:54.073Z,32.02
2023-01-01T00:31:28.261Z,32.05
2023-01-01T00:34:10.075Z,33.16
2023-01-01T00:36:36.796Z,32.54
2023-01-01T00:39:10.119Z,32.01
2023-01-01T00:41:37.047Z,33.19
2023-01-01T00:44:10.235Z,32.56
2023-01-01T00:46:37.152Z,31.87
2023-01-01T00:49:10.160Z,31.74
2023-01-01T00:51:37.444Z,32.33
2023-01-01T00:54:10.234Z,30.92
2023-01-01T00:56:43.181Z,32.28
2023-01-01T00:59:10.183Z,32.94
2023-01-01T01:01:48.310Z,33.52
2023-01-01T01:04:15.196Z,33.91
2023-01-01T01:06:48.309Z,34.99
2023-01-01T01:09:21.317Z,36.32
2023-01-01T01:11:48.183Z,35.36
2023-01-01T01:14:21.182Z,34.47
2023-01-01T01:16:47.873Z,34.56
2023-01-01T01:19:25.155Z,37.38
2023-01-01T01:21:52.247Z,37.17
2023-01-01T01:24:25.154Z,36.13
2023-01-01T01:26:53.360Z,36.05
2023-01-01T01:29:27.286Z,47.72
2023-01-01T01:31:53.960Z,55.86
2023-01-01T01:34:41.208Z,60.18
2023-01-01T01:37:14.194Z,62.27
2023-01-01T01:39:41.258Z,63.85
2023-01-01T01:42:15.547Z,64.90
2023-01-01T01:44:53.752Z,65.50
2023-01-01T01:47:44.228Z,65.76
2023-01-01T01:50:23.183Z,66.27
2023-01-01T01:53:16.325Z,65.85
2023-01-01T01:56:05.398Z,66.04
2023-01-01T01:58:40.258Z,66.65
2023-01-01T02:01:13.327Z,66.10
2023-01-01T02:03:57.539Z,65.70
2023-01-01T02:06:33.224Z,65.99
2023-01-01T02:09:04.925Z,66.35
2023-01-01T02:11:38.341Z,65.05
2023-01-01T02:14:11.876Z,65.71
2023-01-01T02:16:48.453Z,66.62
2023-01-01T02:19:39.016Z,65.48
2023-01-01T02:22:31.248Z,66.21
2023-01-01T02:25:32.471Z,65.03
2023-01-01T02:28:13.223Z,64.91
2023-01-01T02:30:51.394Z,64.31
2023-01-01T02:33:31.300Z,64.34
2023-01-01T02:36:18.169Z,64.01
2023-01-01T02:38:49.776Z,57.08
2023-01-01T02:41:30.467Z,43.16
2023-01-01T02:46:41.380Z,33.83
2023-01-01T02:49:10.747Z,33.54
2023-01-01T02:52:05.223Z,33.99
2023-01-01T02:55:03.366Z,31.52
2023-01-01T02:57:42.676Z,30.98
2023-01-01T03:00:38.278Z,32.14
2023-01-01T03:03:30.333Z,33.36
2023-01-01T03:06:30.370Z,34.05
2023-01-01T03:09:12.595Z,33.89
2023-01-01T03:12:04.234Z,33.36
2023-01-01T03:14:47.324Z,34.12
2023-01-01T03:17:41.494Z,33.67
2023-01-01T03:20:20.225Z,31.23
2023-01-01T03:22:57.318Z,31.36
2023-01-01T03:25:41.262Z,32.00
2023-01-01T03:28:19.218Z,32.13
2023-01-01T03:30:57.299Z,31.27
2023-01-01T03:33:52.313Z,31.20
2023-01-01T03:36:31.236Z,31.37
2023-01-01T03:39:02.674Z,32.28
2023-01-01T03:41:51.231Z,30.45
2023-01-01T03:44:48.209Z,31.03
2023-01-01T03:47:22.189Z,31.51
2023-01-01T03:49:48.974Z,30.43
2023-01-01T03:52:41.271Z,30.30
2023-01-01T03:55:31.787Z,31.41
2023-01-01T03:58:14.359Z,30.06
2023-01-01T04:00:51.090Z,29.99
2023-01-01T04:03:31.695Z,31.52
2023-01-01T04:06:05.263Z,32.12
2023-01-01T04:08:34.747Z,31.97
2023-01-01T04:11:33.238Z,31.38
2023-01-01T04:14:00.364Z,31.90
2023-01-01T04:16:33.323Z,32.93
2023-01-01T04:18:59.974Z,32.25
2023-01-01T04:21:33.425Z,31.72
2023-01-01T04:24:00.135Z,32.22
2023-01-01T04:26:33.299Z,30.95
2023-01-01T04:29:00.090Z,30.31
2023-01-01T04:31:33.224Z,29.89
2023-01-01T04:34:06.306Z,29.57
2023-01-01T04:36:46.383Z,29.38
2023-01-01T04:39:13.244Z,30.61
2023-01-01T04:41:46.371Z,31.21
2023-01-01T04:44:13.430Z,31.60
2023-01-01T04:46:46.462Z,31.22
2023-01-01T04:49:19.345Z,30.49
2023-01-01T04:51:46.604Z,29.87
2023-01-01T04:54:20.207Z,29.37
2023-01-01T04:56:47.176Z,29.56
2023-01-01T04:59:20.276Z,29.71
2023-01-01T05:01:47.317Z,29.27
2023-01-01T05:04:22.366Z,29.91
2023-01-01T05:06:49.087Z,30.61
2023-01-01T05:09:22.335Z,30.32
2023-01-01T05:11:48.966Z,29.17
2023-01-01T05:14:22.271Z,28.56
2023-01-01T05:16:55.444Z,28.28
2023-01-01T05:19:22.361Z,28.75
2023-01-01T05:21:55.482Z,28.84
2023-01-01T05:24:28.228Z,29.77
2023-01-01T05:26:55.323Z,30.06
2023-01-01T05:29:31.246Z,29.92
2023-01-01T05:32:04.371Z,28.55
2023-01-01T05:37:09.272Z,28.63
2023-01-01T05:39:44.321Z,28.61
2023-01-01T05:42:11.199Z,28.02
2023-01-01T05:44:44.298Z,28.08
2023-01-01T05:47:10.971Z,28.64
2023-01-01T05:49:44.276Z,29.78
2023-01-01T05:52:21.548Z,28.82
2023-01-01T05:54:57.306Z,27.11
2023-01-01T05:57:31.517Z,28.93
2023-01-01T06:00:05.305Z,29.46
2023-01-01T06:02:38.387Z,30.25
2023-01-01T06:05:05.765Z,29.05
2023-01-01T06:07:43.287Z,27.18
2023-01-01T06:10:21.344Z,29.38
2023-01-01T06:12:54.401Z,27.58
2023-01-01T06:15:27.336Z,26.55
2023-01-01T06:17:54.365Z,27.77
2023-01-01T06:20:21.374Z,28.41
2023-01-01T06:22:54.311Z,27.44
2023-01-01T06:25:21.170Z,27.66
2023-01-01T06:27:54.377Z,30.31
2023-01-01T06:30:21.064Z,29.75
2023-01-01T06:32:54.348Z,28.17
2023-01-01T06:35:35.327Z,27.94
2023-01-01T06:38:08.361Z,28.14
2023-01-01T06:40:34.954Z,29.54
2023-01-01T06:43:08.328Z,30.78
2023-01-01T06:45:41.333Z,30.80
2023-01-01T06:48:08.179Z,31.84
2023-01-01T06:50:41.383Z,31.80
2023-01-01T06:53:08.038Z,31.84
2023-01-01T06:55:42.366Z,32.29
2023-01-01T06:58:16.294Z,31.39
2023-01-01T07:00:50.329Z,32.17
2023-01-01T07:03:17.021Z,30.60
2023-01-01T07:05:51.447Z,31.48
2023-01-01T07:08:18.172Z,32.41
2023-01-01T07:10:51.707Z,31.09
2023-01-01T07:13:18.637Z,30.63
2023-01-01T07:15:55.366Z,30.11
2023-01-01T07:18:24.404Z,30.59
2023-01-01T07:21:03.389Z,31.16
2023-01-01T07:23:32.797Z,30.43
2023-01-01T07:26:06.502Z,30.46
2023-01-01T07:28:33.441Z,29.80
2023-01-01T07:31:07.734Z,31.34
2023-01-01T07:33:41.695Z,30.97
2023-01-01T07:36:22.571Z,30.53
2023-01-01T07:38:57.457Z,30.64
2023-01-01T07:41:24.566Z,30.13
2023-01-01T07:43:57.297Z,29.86
2023-01-01T07:46:24.136Z,32.25
2023-01-01T07:48:57.481Z,31.48
2023-01-01T07:51:25.614Z,32.01
2023-01-01T07:54:06.098Z,31.30
2023-01-01T07:56:35.959Z,31.34
2023-01-01T07:59:09.400Z,30.92
2023-01-01T08:01:38.170Z,31.96
2023-01-01T08:04:12.552Z,31.27
2023-01-01T08:06:46.595Z,32.71
2023-01-01T08:09:20.653Z,33.77
2023-01-01T08:11:54.501Z,35.13
2023-01-01T08:14:21.272Z,35.31
2023-01-01T08:16:54.545Z,34.20
2023-01-01T08:19:21.507Z,33.41
2023-01-01T08:21:55.372Z,33.74
2023-01-01T08:24:22.565Z,33.15
2023-01-01T08:26:57.488Z,32.72
2023-01-01T08:29:24.731Z,33.36
2023-01-01T08:31:58.502Z,33.01
2023-01-01T08:34:45.416Z,32.66
2023-01-01T08:37:20.374Z,33.60
2023-01-01T08:39:50.278Z,34.60
2023-01-01T08:42:23.469Z,34.87
2023-01-01T08:44:50.667Z,33.84
2023-01-01T08:47:31.619Z,33.75
2023-01-01T08:50:05.596Z,32.95
2023-01-01T08:52:32.552Z,32.12
2023-01-01T08:55:06.480Z,33.11
2023-01-01T08:57:33.332Z,32.58
2023-01-01T09:00:06.390Z,32.67
2023-01-01T09:02:39.742Z,32.38
2023-01-01T09:05:07.441Z,32.92
2023-01-01T09:07:40.622Z,33.06
2023-01-01T09:10:14.781Z,33.27
2023-01-01T09:12:48.519Z,32.63
2023-01-01T09:15:23.412Z,33.76
2023-01-01T09:17:50.630Z,32.87
2023-01-01T09:20:24.478Z,31.57
2023-01-01T09:22:51.498Z,31.82
2023-01-01T09:25:24.528Z,31.85
2023-01-01T09:28:04.479Z,32.86
2023-01-01T09:30:40.341Z,35.54
2023-01-01T09:33:07.174Z,35.07
2023-01-01T09:35:50.494Z,33.35
2023-01-01T09:38:30.559Z,34.82
2023-01-01T09:41:17.550Z,40.63
2023-01-01T09:44:02.568Z,51.58
2023-01-01T09:46:35.814Z,56.71
2023-01-01T09:49:18.820Z,58.42
2023-01-01T09:52:01.605Z,60.46
2023-01-01T09:54:53.478Z,60.87
2023-01-01T09:57:33.388Z,62.73
2023-01-01T10:00:00.885Z,63.91
2023-01-01T10:02:46.811Z,64.03
2023-01-01T10:05:33.860Z,64.56
2023-01-01T10:08:25.419Z,64.82
2023-01-01T10:11:22.393Z,65.36
2023-01-01T10:13:58.385Z,65.91
2023-01-01T10:16:34.876Z,65.96
2023-01-01T10:19:45.484Z,65.22
2023-01-01T10:22:48.479Z,65.22
2023-01-01T10:25:40.516Z,64.93
2023-01-01T10:28:31.392Z,65.61
2023-01-01T10:31:21.516Z,66.14
2023-01-01T10:33:55.423Z,66.98
2023-01-01T10:36:35.452Z,67.00
2023-01-01T10:39:02.335Z,67.65
2023-01-01T10:41:35.463Z,67.43
2023-01-01T10:44:02.437Z,67.75
2023-01-01T10:46:36.608Z,68.07
2023-01-01T10:49:12.416Z,68.20
2023-01-01T10:51:52.465Z,68.23
2023-01-01T10:54:26.473Z,68.17
2023-01-01T10:57:03.400Z,68.33
2023-01-01T10:59:36.873Z,68.25
2023-01-01T11:02:23.699Z,68.25
2023-01-01T11:04:52.464Z,68.55
2023-01-01T11:07:35.476Z,68.13
2023-01-01T11:10:05.944Z,68.07
2023-01-01T11:13:04.853Z,68.88
2023-01-01T11:15:34.184Z,69.07
2023-01-01T11:18:35.468Z,69.16
2023-01-01T11:21:04.762Z,70.05
2023-01-01T11:23:40.645Z,70.87
2023-01-01T11:26:21.457Z,70.56
2023-01-01T11:29:29.770Z,71.44
2023-01-01T11:31:58.668Z,71.37
2023-01-01T11:34:48.568Z,72.73
2023-01-01T11:37:34.330Z,73.49
2023-01-01T11:40:10.212Z,74.64
2023-01-01T11:42:37.760Z,74.85
2023-01-01T11:45:20.521Z,74.52
2023-01-01T11:47:55.899Z,74.80
2023-01-01T11:50:43.497Z,75.08
2023-01-01T11:53:22.503Z,74.73
2023-01-01T11:56:14.494Z,75.03
2023-01-01T11:58:59.463Z,74.95
2023-01-01T12:01:50.684Z,74.53
2023-01-01T12:04:47.605Z,73.96
2023-01-01T12:07:37.719Z,74.02
2023-01-01T12:10:40.607Z,73.66
2023-01-01T12:13:23.588Z,73.84
2023-01-01T12:15:56.639Z,74.11
2023-01-01T12:18:41.721Z,74.37
2023-01-01T12:21:11.495Z,74.38
2023-01-01T12:23:44.477Z,74.40
2023-01-01T12:26:29.754Z,74.23
2023-01-01T12:29:30.581Z,74.53
2023-01-01T12:32:21.545Z,74.25
2023-01-01T12:35:32.509Z,74.16
2023-01-01T12:38:27.738Z,75.32
2023-01-01T12:41:09.569Z,75.21
2023-01-01T12:43:56.904Z,75.17
2023-01-01T12:46:43.658Z,75.51
2023-01-01T12:49:45.183Z,75.67
2023-01-01T12:52:38.921Z,75.88
2023-01-01T12:55:43.545Z,75.37
2023-01-01T12:58:26.569Z,75.55
2023-01-01T13:01:06.581Z,76.22
2023-01-01T13:03:50.593Z,76.03
2023-01-01T13:06:28.781Z,76.08
2023-01-01T13:09:05.587Z,75.87
2023-01-01T13:11:44.939Z,75.52
2023-01-01T13:14:19.719Z,75.19
2023-01-01T13:16:59.768Z,75.22
2023-01-01T13:19:35.925Z,75.64
2023-01-01T13:22:35.539Z,75.82
2023-01-01T13:25:11.997Z,76.19
2023-01-01T13:28:03.742Z,76.32
2023-01-01T13:30:41.897Z,76.62
2023-01-01T13:33:31.111Z,76.62
2023-01-01T13:36:23.872Z,76.79
2023-01-01T13:39:02.620Z,76.74
2023-01-01T13:41:47.684Z,76.68
2023-01-01T13:44:29.519Z,76.90
2023-01-01T13:47:21.583Z,76.84
2023-01-01T13:50:22.826Z,76.73
2023-01-01T13:52:53.212Z,76.46
2023-01-01T13:55:54.712Z,76.45
2023-01-01T13:58:53.996Z,75.96
2023-01-01T14:01:27.816Z,75.97
2023-01-01T14:03:57.825Z,75.99
2023-01-01T14:06:44.676Z,75.71
2023-01-01T14:09:23.878Z,75.74
2023-01-01T14:11:57.768Z,75.79
2023-01-01T14:14:32.012Z,75.59
2023-01-01T14:17:08.702Z,75.34
2023-01-01T14:19:45.623Z,75.00
2023-01-01T14:22:17.189Z,74.77
2023-01-01T14:24:53.593Z,74.94
2023-01-01T14:27:22.442Z,74.85
2023-01-01T14:29:58.617Z,74.65
2023-01-01T14:32:25.950Z,74.45
2023-01-01T14:35:08.928Z,74.63
2023-01-01T14:37:42.796Z,74.45
2023-01-01T14:40:34.612Z,74.26
2023-01-01T14:43:19.679Z,74.08
2023-01-01T14:46:01.662Z,74.06
2023-01-01T14:48:38.765Z,74.09
2023-01-01T14:51:06.175Z,74.16
2023-01-01T14:53:40.754Z,73.95
2023-01-01T14:56:10.013Z,74.13
2023-01-01T14:58:47.757Z,74.10
2023-01-01T15:01:33.144Z,74.08
2023-01-01T15:04:11.844Z,74.41
2023-01-01T15:06:48.881Z,74.53
2023-01-01T15:09:17.298Z,74.24
2023-01-01T15:11:50.806Z,74.36
2023-01-01T15:14:36.278Z,74.56
2023-01-01T15:17:14.688Z,74.93
2023-01-01T15:19:44.593Z,74.96
2023-01-01T15:22:24.581Z,75.16
2023-01-01T15:24:58.736Z,74.95
2023-01-01T15:27:35.881Z,75.30
2023-01-01T15:30:13.895Z,75.18
2023-01-01T15:32:41.270Z,74.99
2023-01-01T15:35:38.702Z,75.26
2023-01-01T15:38:18.005Z,75.17
2023-01-01T15:40:55.201Z,75.42
2023-01-01T15:43:27.076Z,75.24
2023-01-01T15:46:32.040Z,75.18
2023-01-01T15:48:59.671Z,75.62
2023-01-01T15:51:34.852Z,75.08
2023-01-01T15:54:05.753Z,75.05
2023-01-01T15:56:45.921Z,74.96
2023-01-01T15:59:50.654Z,72.78
2023-01-01T16:02:32.022Z,51.47
2023-01-01T16:05:07.395Z,44.05
2023-01-01T16:07:40.698Z,39.71
2023-01-01T16:10:16.049Z,38.03
2023-01-01T16:12:49.777Z,41.78
2023-01-01T16:15:23.901Z,54.52
2023-01-01T16:17:50.912Z,62.60
2023-01-01T16:20:26.906Z,65.76
2023-01-01T16:22:54.274Z,68.01
2023-01-01T16:25:30.767Z,69.26
2023-01-01T16:28:03.860Z,70.52
2023-01-01T16:30:40.019Z,71.05
2023-01-01T16:33:25.817Z,71.42
2023-01-01T16:36:04.198Z,71.24
2023-01-01T16:38:43.945Z,71.79
2023-01-01T16:41:15.602Z,72.10
2023-01-01T16:43:50.960Z,72.02
2023-01-01T16:46:18.969Z,72.01
2023-01-01T16:48:52.786Z,72.33
2023-01-01T16:51:40.664Z,72.39
2023-01-01T16:54:16.876Z,72.07
2023-01-01T16:56:50.730Z,72.44
2023-01-01T16:59:24.790Z,72.37
2023-01-01T17:01:52.126Z,72.24
2023-01-01T17:04:25.784Z,72.74
2023-01-01T17:06:52.588Z,72.34
2023-01-01T17:09:25.640Z,72.74
2023-01-01T17:11:52.310Z,73.12
2023-01-01T17:14:25.779Z,72.67
2023-01-01T17:17:01.768Z,72.83
2023-01-01T17:19:35.895Z,72.67
2023-01-01T17:22:10.801Z,72.80
2023-01-01T17:24:44.848Z,72.74
2023-01-01T17:27:11.615Z,72.89
2023-01-01T17:29:47.703Z,72.98
2023-01-01T17:32:15.639Z,72.77
2023-01-01T17:34:48.991Z,72.87
2023-01-01T17:37:29.768Z,72.89
2023-01-01T17:39:57.028Z,72.82
2023-01-01T17:42:30.924Z,72.74
2023-01-01T17:44:58.214Z,72.54
2023-01-01T17:47:33.207Z,72.67
2023-01-01T17:50:07.752Z,72.56
2023-01-01T17:52:41.787Z,72.74
2023-01-01T17:55:09.138Z,72.91
2023-01-01T17:57:42.792Z,72.68
2023-01-01T18:00:12.319Z,72.52
2023-01-01T18:02:46.049Z,72.57
2023-01-01T18:05:21.836Z,73.13
2023-01-01T18:07:55.710Z,73.37
2023-01-01T18:10:22.613Z,74.18
2023-01-01T18:12:55.718Z,74.89
2023-01-01T18:15:29.969Z,75.89
2023-01-01T18:18:03.779Z,76.11
2023-01-01T18:20:31.471Z,76.38
2023-01-01T18:23:05.064Z,77.57
2023-01-01T18:25:32.656Z,77.48
2023-01-01T18:28:06.527Z,77.47
2023-01-01T18:30:40.808Z,78.08
2023-01-01T18:33:07.970Z,78.18
2023-01-01T18:35:41.852Z,78.49
2023-01-01T18:38:20.845Z,78.82
2023-01-01T18:41:24.001Z,78.89
2023-01-01T18:43:51.353Z,78.95
2023-01-01T18:46:18.357Z,79.48
2023-01-01T18:48:57.150Z,79.62
2023-01-01T18:51:27.931Z,80.23
2023-01-01T18:54:04.737Z,79.99
2023-01-01T18:56:32.810Z,80.80
2023-01-01T18:59:07.993Z,80.40
2023-01-01T19:01:36.625Z,80.87
2023-01-01T19:04:17.905Z,80.81
2023-01-01T19:06:46.240Z,80.85
2023-01-01T19:09:33.838Z,81.18
2023-01-01T19:12:01.694Z,81.91
2023-01-01T19:14:37.924Z,81.78
2023-01-01T19:17:13.799Z,82.16
2023-01-01T19:19:48.724Z,82.29
2023-01-01T19:22:24.108Z,82.37
2023-01-01T19:24:57.982Z,83.10
2023-01-01T19:27:25.092Z,83.39
2023-01-01T19:29:58.880Z,83.81
2023-01-01T19:32:32.023Z,83.62
2023-01-01T19:35:12.060Z,83.53
2023-01-01T19:37:50.100Z,84.31
2023-01-01T19:40:23.919Z,83.99
2023-01-01T19:42:57.936Z,84.73
2023-01-01T19:45:26.486Z,84.84
2023-01-01T19:48:02.111Z,85.02
2023-01-01T19:50:35.814Z,85.41
2023-01-01T19:53:08.802Z,85.89
2023-01-01T19:55:35.814Z,86.07
2023-01-01T19:58:08.802Z,85.85
2023-01-01T20:00:38.140Z,85.84
2023-01-01T20:03:52.298Z,85.63
2023-01-01T20:06:08.966Z,86.40
2023-01-01T20:08:44.730Z,86.60
2023-01-01T20:11:11.363Z,86.35
2023-01-01T20:13:44.808Z,86.41
2023-01-01T20:16:11.640Z,86.84
2023-01-01T20:18:44.766Z,86.95
2023-01-01T20:21:30.677Z,86.88
2023-01-01T20:24:03.764Z,87.08
2023-01-01T20:26:30.833Z,87.10
2023-01-01T20:29:22.813Z,87.04
2023-01-01T20:31:51.993Z,86.98
2023-01-01T20:34:25.761Z,87.32
2023-01-01T20:37:17.595Z,87.40
2023-01-01T20:39:50.820Z,87.47
2023-01-01T20:42:24.935Z,87.77
2023-01-01T20:44:57.760Z,87.66
2023-01-01T20:47:24.469Z,87.58
2023-01-01T20:49:57.709Z,87.61
2023-01-01T20:52:24.447Z,87.54
2023-01-01T20:54:57.751Z,87.95
2023-01-01T20:57:24.506Z,88.66
2023-01-01T20:59:51.197Z,89.05
2023-01-01T21:02:24.994Z,89.01
2023-01-01T21:04:51.758Z,89.23
2023-01-01T21:07:24.789Z,89.30
2023-01-01T21:09:51.429Z,89.19
2023-01-01T21:12:24.798Z,89.29
2023-01-01T21:14:52.045Z,89.02
2023-01-01T21:17:33.717Z,87.77
2023-01-01T21:20:01.201Z,87.65
2023-01-01T21:22:34.870Z,87.34
2023-01-01T21:25:49.285Z,87.60
2023-01-01T21:28:08.745Z,87.53
2023-01-01T21:30:35.556Z,87.97
2023-01-01T21:33:08.852Z,88.69
2023-01-01T21:35:55.871Z,88.69
2023-01-01T21:38:33.785Z,88.82
2023-01-01T21:41:11.151Z,88.57
2023-01-01T21:44:04.937Z,89.11
2023-01-01T21:46:40.764Z,89.11
2023-01-01T21:49:24.119Z,89.11
2023-01-01T21:52:05.834Z,89.39
2023-01-01T21:54:35.037Z,89.29
2023-01-01T21:57:18.819Z,89.51
2023-01-01T21:59:53.815Z,89.45
2023-01-01T22:02:32.310Z,89.09
2023-01-01T22:05:07.787Z,89.26
2023-01-01T22:10:42.912Z,89.29
2023-01-01T22:13:15.570Z,89.18
2023-01-01T22:15:51.398Z,89.32
2023-01-01T22:18:29.794Z,89.50
2023-01-01T22:21:04.916Z,89.69
2023-01-01T22:23:37.879Z,89.49
2023-01-01T22:26:21.899Z,89.52
2023-01-01T22:28:54.832Z,89.61
2023-01-01T22:31:33.492Z,89.79
2023-01-01T22:34:04.867Z,89.68
2023-01-01T22:36:42.860Z,89.62
2023-01-01T22:39:20.941Z,89.79
2023-01-01T22:41:56.826Z,89.81
2023-01-01T22:44:23.739Z,89.64
2023-01-01T22:46:56.959Z,90.07
2023-01-01T22:49:32.878Z,90.00
2023-01-01T22:52:06.789Z,89.86
2023-01-01T22:54:34.025Z,89.64
2023-01-01T22:57:07.827Z,89.92
2023-01-01T22:59:34.662Z,89.59
2023-01-01T23:02:07.908Z,89.73
2023-01-01T23:04:34.921Z,90.27
2023-01-01T23:07:03.963Z,89.92
2023-01-01T23:09:39.918Z,89.95
2023-01-01T23:12:13.820Z,89.99
2023-01-01T23:15:05.911Z,90.12
2023-01-01T23:17:33.027Z,90.65
2023-01-01T23:20:06.362Z,90.52
2023-01-01T23:22:47.763Z,90.57
2023-01-01T23:25:25.026Z,90.46
2023-01-01T23:27:53.519Z,90.30
2023-01-01T23:30:28.000Z,90.84
2023-01-01T23:32:55.700Z,90.89
2023-01-01T23:35:30.187Z,90.91
2023-01-01T23:38:14.643Z,90.79
2023-01-01T23:40:49.408Z,90.38
2023-01-01T23:43:16.709Z,90.56
2023-01-01T23:45:50.995Z,90.36
2023-01-01T23:48:19.594Z,90.24
2023-01-01T23:50:54.139Z,90.39
2023-01-01T23:53:28.338Z,90.30
2023-01-01T23:56:02.150Z,90.12
2023-01-01T23:58:36.081Z,89.88
